Time;durP1;ratioP1;P1;durP2;ratioP2;P2;SDS_P1;SDS_P2;PMS_P1;PMS_P2;Temp;Humidity;BMP_temperature;BMP_pressure;BME280_temperature;BME280_humidity;BME280_pressure;Samples;Min_cycle;Max_cycle;Signal;HPM_P1;HPM_P2
2022/12/26 00:00:53;;;;;;;0.80;0.80;;;;;;;;;;4895515;29;20470;-76
2022/12/26 00:03:20;;;;;;;0.60;0.60;;;;;;;;;;4897796;29;20462;-77
2022/12/26 00:05:49;;;;;;;0.70;0.70;;;;;;;;;;4902525;29;20537;-76
2022/12/26 00:08:17;;;;;;;0.70;0.70;;;;;;;;;;4905319;29;20554;-75
2022/12/26 00:10:44;;;;;;;0.60;0.60;;;;;;;;;;4890451;29;20451;-77
2022/12/26 00:13:11;;;;;;;0.70;0.60;;;;;;;;;;4890425;29;20828;-76
2022/12/26 00:15:58;;;;;;;0.60;0.60;;;;;;;;;;4890702;29;20551;-77
2022/12/26 00:18:25;;;;;;;0.70;0.70;;;;;;;;;;4895604;29;20509;-76
2022/12/26 00:20:53;;;;;;;0.63;0.63;;;;;;;;;;4881697;29;20477;-76
2022/12/26 00:23:20;;;;;;;0.70;0.70;;;;;;;;;;4894044;29;20952;-77
2022/12/26 00:25:47;;;;;;;0.67;0.67;;;;;;;;;;4889842;29;20546;-77
2022/12/26 00:28:13;;;;;;;0.70;0.70;;;;;;;;;;4892513;29;20445;-77
2022/12/26 00:30:40;;;;;;;0.60;0.60;;;;;;;;;;4894896;29;20538;-77
2022/12/26 00:33:07;;;;;;;0.70;0.60;;;;;;;;;;4888287;29;20502;-75
2022/12/26 00:35:34;;;;;;;0.60;0.60;;;;;;;;;;4895951;29;21014;-77
2022/12/26 00:38:20;;;;;;;0.60;0.60;;;;;;;;;;4892171;29;20444;-76
2022/12/26 00:40:47;;;;;;;0.70;0.70;;;;;;;;;;4888657;29;20777;-77
2022/12/26 00:43:14;;;;;;;0.70;0.70;;;;;;;;;;4895107;29;20441;-77
2022/12/26 00:45:43;;;;;;;0.70;0.70;;;;;;;;;;4895577;29;20501;-79
2022/12/26 00:48:10;;;;;;;0.80;0.80;;;;;;;;;;4894222;29;20471;-78
2022/12/26 00:50:38;;;;;;;0.70;0.70;;;;;;;;;;4906040;29;20450;-77
2022/12/26 00:53:05;;;;;;;0.60;0.60;;;;;;;;;;4887587;29;20473;-76
2022/12/26 00:55:33;;;;;;;0.70;0.70;;;;;;;;;;4894572;29;20480;-79
2022/12/26 00:58:01;;;;;;;0.70;0.70;;;;;;;;;;4896855;29;20536;-78
2022/12/26 01:00:28;;;;;;;0.70;0.70;;;;;;;;;;4890744;29;20891;-77
2022/12/26 01:02:55;;;;;;;0.60;0.60;;;;;;;;;;4889476;29;20493;-79
2022/12/26 01:05:22;;;;;;;0.60;0.60;;;;;;;;;;4892688;29;20605;-78
2022/12/26 01:07:50;;;;;;;0.80;0.80;;;;;;;;;;4894324;29;20472;-79
2022/12/26 01:10:40;;;;;;;0.70;0.70;;;;;;;;;;4894353;29;20487;-78
2022/12/26 01:13:08;;;;;;;0.60;0.60;;;;;;;;;;4892012;29;21093;-78
2022/12/26 01:15:34;;;;;;;0.70;0.67;;;;;;;;;;4895171;29;20478;-77
2022/12/26 01:18:03;;;;;;;0.73;0.73;;;;;;;;;;4904722;29;20482;-78
2022/12/26 01:20:31;;;;;;;0.70;0.70;;;;;;;;;;4890050;29;20448;-77
2022/12/26 01:22:58;;;;;;;0.70;0.60;;;;;;;;;;4892709;29;20459;-77
2022/12/26 01:25:24;;;;;;;0.67;0.67;;;;;;;;;;4877576;29;20486;-78
2022/12/26 01:27:53;;;;;;;0.70;0.70;;;;;;;;;;4900653;29;20505;-77
2022/12/26 01:30:20;;;;;;;0.70;0.70;;;;;;;;;;4886980;29;20451;-77
2022/12/26 01:32:46;;;;;;;0.70;0.70;;;;;;;;;;4895806;29;20523;-76
2022/12/26 01:35:13;;;;;;;0.90;0.90;;;;;;;;;;4894720;29;20982;-78
2022/12/26 01:37:40;;;;;;;0.60;0.60;;;;;;;;;;4895081;29;20465;-78
2022/12/26 01:40:07;;;;;;;0.80;0.80;;;;;;;;;;4895346;29;20998;-76
2022/12/26 01:42:36;;;;;;;0.70;0.70;;;;;;;;;;4880068;29;20473;-76
2022/12/26 01:45:06;;;;;;;0.70;0.70;;;;;;;;;;4889777;29;20457;-78
2022/12/26 01:47:36;;;;;;;0.70;0.70;;;;;;;;;;4889628;29;20569;-78
2022/12/26 01:50:04;;;;;;;0.70;0.70;;;;;;;;;;4894505;29;20961;-75
2022/12/26 01:52:32;;;;;;;0.70;0.70;;;;;;;;;;4895339;29;20440;-78
2022/12/26 01:54:59;;;;;;;0.70;0.70;;;;;;;;;;4892195;29;20467;-76
2022/12/26 01:57:28;;;;;;;0.70;0.70;;;;;;;;;;4892467;29;20450;-76
2022/12/26 01:59:56;;;;;;;0.70;0.67;;;;;;;;;;4889923;29;20537;-77
2022/12/26 02:02:25;;;;;;;0.70;0.70;;;;;;;;;;4893843;29;20504;-76
2022/12/26 02:07:42;;;;;;;0.80;0.80;;;;;;;;;;4891316;29;20444;-78
2022/12/26 02:10:15;;;;;;;0.60;0.60;;;;;;;;;;4897671;29;20462;-77
2022/12/26 02:12:44;;;;;;;0.73;0.73;;;;;;;;;;4900086;29;20791;-77
2022/12/26 02:15:16;;;;;;;1.37;1.27;;;;;;;;;;4893653;29;20452;-80
2022/12/26 02:17:53;;;;;;;0.67;0.67;;;;;;;;;;4906377;29;20862;-78
2022/12/26 02:20:27;;;;;;;0.70;0.70;;;;;;;;;;4897191;29;20988;-78
2022/12/26 02:23:11;;;;;;;0.70;0.60;;;;;;;;;;4898835;29;20553;-77
2022/12/26 02:25:54;;;;;;;0.70;0.60;;;;;;;;;;4895819;29;20515;-78
2022/12/26 02:28:46;;;;;;;0.70;0.70;;;;;;;;;;4893438;29;20443;-79
2022/12/26 02:31:20;;;;;;;0.70;0.70;;;;;;;;;;4894433;29;20456;-79
2022/12/26 02:34:01;;;;;;;0.67;0.60;;;;;;;;;;4889676;29;21082;-77
2022/12/26 02:36:52;;;;;;;0.70;0.70;;;;;;;;;;4897685;29;20466;-79
2022/12/26 02:39:29;;;;;;;0.80;0.80;;;;;;;;;;4894833;29;20463;-79
2022/12/26 02:42:18;;;;;;;0.60;0.60;;;;;;;;;;4895064;29;20435;-77
2022/12/26 02:47:51;;;;;;;0.70;0.70;;;;;;;;;;4889179;29;20502;-79
2022/12/26 03:14:01;;;;;;;0.60;0.60;;;;;;;;;;4892713;29;20444;-77
2022/12/26 03:19:21;;;;;;;0.70;0.70;;;;;;;;;;4893565;29;20872;-79
2022/12/26 03:22:29;;;;;;;0.90;0.90;;;;;;;;;;4881623;29;20458;-77
2022/12/26 03:27:54;;;;;;;0.90;0.90;;;;;;;;;;4891296;29;20473;-78
2022/12/26 03:36:03;;;;;;;0.70;0.70;;;;;;;;;;4903991;29;20462;-80
2022/12/26 03:38:56;;;;;;;0.60;0.60;;;;;;;;;;4890322;29;20485;-78
2022/12/26 04:44:09;;;;;;;0.70;0.70;;;;;;;;;;4890269;29;20536;-78
2022/12/26 04:46:39;;;;;;;0.70;0.60;;;;;;;;;;4894376;29;20487;-79
2022/12/26 04:51:55;;;;;;;0.70;0.70;;;;;;;;;;4901977;29;20457;-78
2022/12/26 04:54:22;;;;;;;0.73;0.73;;;;;;;;;;4893974;29;20462;-77
2022/12/26 04:56:49;;;;;;;0.70;0.70;;;;;;;;;;4891725;29;20513;-79
2022/12/26 04:59:16;;;;;;;0.70;0.70;;;;;;;;;;4888702;29;20436;-78
2022/12/26 05:10:05;;;;;;;0.60;0.60;;;;;;;;;;4902948;29;20538;-79
2022/12/26 05:12:32;;;;;;;0.60;0.60;;;;;;;;;;4896051;29;20824;-79
2022/12/26 05:14:59;;;;;;;0.70;0.70;;;;;;;;;;4876630;29;20498;-79
2022/12/26 05:28:41;;;;;;;0.60;0.60;;;;;;;;;;4885287;29;20549;-78
2022/12/26 05:31:12;;;;;;;0.60;0.60;;;;;;;;;;4891256;29;21214;-79
2022/12/26 05:36:29;;;;;;;0.60;0.60;;;;;;;;;;4885365;29;20540;-76
2022/12/26 05:38:56;;;;;;;0.60;0.50;;;;;;;;;;4894995;29;20537;-77
2022/12/26 05:41:24;;;;;;;0.60;0.60;;;;;;;;;;4888608;29;21004;-76
2022/12/26 05:43:50;;;;;;;0.63;0.63;;;;;;;;;;4891424;29;20448;-76
2022/12/26 05:46:20;;;;;;;0.70;0.70;;;;;;;;;;4893362;29;20509;-75
2022/12/26 05:48:48;;;;;;;0.60;0.60;;;;;;;;;;4892745;29;20468;-74
2022/12/26 05:51:15;;;;;;;0.63;0.63;;;;;;;;;;4887743;29;20438;-75
2022/12/26 05:53:43;;;;;;;0.60;0.60;;;;;;;;;;4889892;29;20433;-74
2022/12/26 05:56:12;;;;;;;0.60;0.60;;;;;;;;;;4890932;29;20458;-75
2022/12/26 05:58:39;;;;;;;0.60;0.60;;;;;;;;;;4887570;29;20978;-74
2022/12/26 06:01:08;;;;;;;0.60;0.60;;;;;;;;;;4895739;29;20435;-74
2022/12/26 06:03:35;;;;;;;0.60;0.60;;;;;;;;;;4882884;29;20900;-74
2022/12/26 06:06:04;;;;;;;0.60;0.50;;;;;;;;;;4889296;29;20447;-75
2022/12/26 06:08:31;;;;;;;0.70;0.70;;;;;;;;;;4893529;29;20590;-75
2022/12/26 06:10:58;;;;;;;0.60;0.60;;;;;;;;;;4890201;29;20936;-75
2022/12/26 06:13:25;;;;;;;0.60;0.60;;;;;;;;;;4892427;29;21028;-75
2022/12/26 06:15:51;;;;;;;0.60;0.60;;;;;;;;;;4887331;29;20553;-75
2022/12/26 06:18:18;;;;;;;0.60;0.50;;;;;;;;;;4889670;29;20464;-76
2022/12/26 06:20:45;;;;;;;0.60;0.60;;;;;;;;;;4893131;29;20452;-75
2022/12/26 06:23:14;;;;;;;0.60;0.50;;;;;;;;;;4889656;29;20774;-76
2022/12/26 06:25:41;;;;;;;0.60;0.60;;;;;;;;;;4889934;29;20466;-75
2022/12/26 06:28:08;;;;;;;0.60;0.60;;;;;;;;;;4878645;29;20476;-73
2022/12/26 06:30:35;;;;;;;0.60;0.50;;;;;;;;;;4887179;29;21027;-74
2022/12/26 06:33:02;;;;;;;0.60;0.50;;;;;;;;;;4887038;29;20462;-76
2022/12/26 06:35:29;;;;;;;1.93;1.10;;;;;;;;;;4890558;29;20449;-75
2022/12/26 06:37:56;;;;;;;0.60;0.60;;;;;;;;;;4892955;29;20440;-75
2022/12/26 06:40:24;;;;;;;0.60;0.60;;;;;;;;;;4889259;29;20495;-74
2022/12/26 06:42:52;;;;;;;0.67;0.67;;;;;;;;;;4888219;29;20463;-74
2022/12/26 06:45:19;;;;;;;0.60;0.60;;;;;;;;;;4891129;29;20439;-75
2022/12/26 06:47:45;;;;;;;0.60;0.50;;;;;;;;;;4893883;29;20493;-76
2022/12/26 06:50:12;;;;;;;0.60;0.57;;;;;;;;;;4888479;29;20478;-75
2022/12/26 06:52:39;;;;;;;0.60;0.50;;;;;;;;;;4886890;29;20491;-76
2022/12/26 06:55:06;;;;;;;0.60;0.50;;;;;;;;;;4893832;29;20542;-74
2022/12/26 06:57:34;;;;;;;0.60;0.60;;;;;;;;;;4904510;29;20510;-76
2022/12/26 07:00:01;;;;;;;0.60;0.60;;;;;;;;;;4892277;29;20454;-76
2022/12/26 07:02:28;;;;;;;0.60;0.60;;;;;;;;;;4882232;29;20474;-77
2022/12/26 07:04:55;;;;;;;0.60;0.60;;;;;;;;;;4901559;29;20450;-76
2022/12/26 07:07:22;;;;;;;0.60;0.60;;;;;;;;;;4896952;29;20995;-76
2022/12/26 07:09:48;;;;;;;0.60;0.50;;;;;;;;;;4894457;29;20534;-76
2022/12/26 07:12:19;;;;;;;0.60;0.60;;;;;;;;;;4900691;29;20493;-76
2022/12/26 07:14:49;;;;;;;0.60;0.60;;;;;;;;;;4907944;29;20436;-76
2022/12/26 07:17:25;;;;;;;0.60;0.60;;;;;;;;;;4903245;29;20451;-75
2022/12/26 07:19:51;;;;;;;0.60;0.60;;;;;;;;;;4908809;29;21010;-76
2022/12/26 07:22:18;;;;;;;0.60;0.60;;;;;;;;;;4912862;29;20435;-76
2022/12/26 07:24:45;;;;;;;0.60;0.60;;;;;;;;;;4896857;29;20554;-75
2022/12/26 07:27:13;;;;;;;0.60;0.60;;;;;;;;;;4898499;29;20499;-76
2022/12/26 07:29:40;;;;;;;0.60;0.60;;;;;;;;;;4892694;29;20920;-77
2022/12/26 07:32:08;;;;;;;0.60;0.60;;;;;;;;;;4891759;29;20491;-76
2022/12/26 07:34:36;;;;;;;0.60;0.50;;;;;;;;;;4898090;29;21285;-76
2022/12/26 07:37:03;;;;;;;0.60;0.60;;;;;;;;;;4898386;29;20469;-76
2022/12/26 07:39:30;;;;;;;0.60;0.50;;;;;;;;;;4895307;29;20546;-76
2022/12/26 07:41:56;;;;;;;0.60;0.60;;;;;;;;;;4893243;29;20819;-76
2022/12/26 07:44:24;;;;;;;0.60;0.60;;;;;;;;;;4890459;29;20953;-77
2022/12/26 07:46:52;;;;;;;0.60;0.60;;;;;;;;;;4893578;29;20475;-75
2022/12/26 07:49:21;;;;;;;0.60;0.60;;;;;;;;;;4891645;29;20577;-76
2022/12/26 07:51:48;;;;;;;0.60;0.60;;;;;;;;;;4898365;29;20443;-75
2022/12/26 07:54:16;;;;;;;0.70;0.70;;;;;;;;;;4897229;29;21047;-75
2022/12/26 07:56:43;;;;;;;0.60;0.60;;;;;;;;;;4889790;29;20954;-76
2022/12/26 07:59:11;;;;;;;0.60;0.60;;;;;;;;;;4888101;29;20792;-75
2022/12/26 08:01:39;;;;;;;0.60;0.50;;;;;;;;;;4897316;29;20443;-75
2022/12/26 08:04:06;;;;;;;0.67;0.67;;;;;;;;;;4903403;29;20670;-76
2022/12/26 08:06:34;;;;;;;0.60;0.60;;;;;;;;;;4895720;29;20551;-76
2022/12/26 08:09:02;;;;;;;0.60;0.50;;;;;;;;;;4887622;29;20477;-75
2022/12/26 08:11:30;;;;;;;0.60;0.50;;;;;;;;;;4891543;29;20473;-76
2022/12/26 08:13:58;;;;;;;0.60;0.60;;;;;;;;;;4897857;29;20433;-76
2022/12/26 08:16:26;;;;;;;0.60;0.60;;;;;;;;;;4888382;29;20436;-77
2022/12/26 08:18:53;;;;;;;0.60;0.60;;;;;;;;;;4890508;29;20490;-76
2022/12/26 08:21:21;;;;;;;0.60;0.60;;;;;;;;;;4888116;29;20453;-75
2022/12/26 08:23:50;;;;;;;0.70;0.70;;;;;;;;;;4896323;29;20538;-76
2022/12/26 08:26:22;;;;;;;0.60;0.60;;;;;;;;;;4889668;29;20499;-76
2022/12/26 08:28:49;;;;;;;0.60;0.60;;;;;;;;;;4875645;29;21020;-75
2022/12/26 08:31:18;;;;;;;0.60;0.60;;;;;;;;;;4896380;29;20461;-76
2022/12/26 08:33:45;;;;;;;0.60;0.60;;;;;;;;;;4891226;29;20561;-76
2022/12/26 08:36:15;;;;;;;0.60;0.60;;;;;;;;;;4879897;29;20941;-76
2022/12/26 08:38:43;;;;;;;0.60;0.60;;;;;;;;;;4904433;29;20802;-76
2022/12/26 08:41:11;;;;;;;0.60;0.60;;;;;;;;;;4891036;29;20464;-76
2022/12/26 08:43:38;;;;;;;0.60;0.60;;;;;;;;;;4895436;29;20486;-76
2022/12/26 08:46:27;;;;;;;0.60;0.60;;;;;;;;;;4894599;29;20947;-76
2022/12/26 08:48:54;;;;;;;0.60;0.60;;;;;;;;;;4895151;29;20520;-76
2022/12/26 08:51:23;;;;;;;0.60;0.60;;;;;;;;;;4895581;29;20461;-76
2022/12/26 08:53:50;;;;;;;0.60;0.60;;;;;;;;;;4896839;29;20483;-75
2022/12/26 08:56:19;;;;;;;0.60;0.50;;;;;;;;;;4893834;29;20454;-76
2022/12/26 08:58:46;;;;;;;0.60;0.50;;;;;;;;;;4890460;29;20463;-76
2022/12/26 09:01:14;;;;;;;0.60;0.60;;;;;;;;;;4887405;29;20470;-79
2022/12/26 09:03:41;;;;;;;0.60;0.60;;;;;;;;;;4863833;29;20467;-79
2022/12/26 09:06:08;;;;;;;0.60;0.60;;;;;;;;;;4887794;29;20812;-79
2022/12/26 09:08:36;;;;;;;0.60;0.50;;;;;;;;;;4903894;29;20466;-76
2022/12/26 09:11:04;;;;;;;0.60;0.60;;;;;;;;;;4903204;29;20447;-76
2022/12/26 09:13:33;;;;;;;0.60;0.60;;;;;;;;;;4891086;29;20448;-75
2022/12/26 09:16:02;;;;;;;0.60;0.60;;;;;;;;;;4881691;29;20959;-77
2022/12/26 09:18:30;;;;;;;0.60;0.50;;;;;;;;;;4887006;29;20501;-75
2022/12/26 09:20:58;;;;;;;0.60;0.60;;;;;;;;;;4889555;29;21007;-79
2022/12/26 09:23:25;;;;;;;0.60;0.60;;;;;;;;;;4890433;29;20463;-81
2022/12/26 09:25:51;;;;;;;0.60;0.60;;;;;;;;;;4887816;29;20595;-83
2022/12/26 09:28:19;;;;;;;0.90;0.90;;;;;;;;;;4894354;29;20493;-80
2022/12/26 09:30:48;;;;;;;0.60;0.60;;;;;;;;;;4893703;29;20510;-79
2022/12/26 09:33:15;;;;;;;0.67;0.67;;;;;;;;;;4896313;29;20469;-80
2022/12/26 09:35:42;;;;;;;0.60;0.60;;;;;;;;;;4896244;29;20484;-78
2022/12/26 09:38:10;;;;;;;0.63;0.60;;;;;;;;;;4893089;29;20542;-79
2022/12/26 09:40:47;;;;;;;0.60;0.60;;;;;;;;;;4886479;29;20460;-77
2022/12/26 09:43:23;;;;;;;0.60;0.57;;;;;;;;;;4892578;29;21015;-77
2022/12/26 09:45:55;;;;;;;0.60;0.60;;;;;;;;;;4897730;29;20452;-77
2022/12/26 09:48:30;;;;;;;0.60;0.60;;;;;;;;;;4892819;29;20491;-76
2022/12/26 09:50:57;;;;;;;0.67;0.67;;;;;;;;;;4894645;29;20439;-79
2022/12/26 09:53:27;;;;;;;0.60;0.60;;;;;;;;;;4890058;29;20447;-81
2022/12/26 09:55:55;;;;;;;0.70;0.70;;;;;;;;;;4894325;29;20479;-80
2022/12/26 09:58:26;;;;;;;0.60;0.60;;;;;;;;;;4896148;29;20456;-81
2022/12/26 10:00:57;;;;;;;0.60;0.60;;;;;;;;;;4896695;29;20447;-79
2022/12/26 10:03:25;;;;;;;0.60;0.60;;;;;;;;;;4891707;29;20528;-80
2022/12/26 10:06:16;;;;;;;0.60;0.60;;;;;;;;;;4894237;29;20491;-81
2022/12/26 10:08:57;;;;;;;0.60;0.60;;;;;;;;;;4904061;29;20487;-79
2022/12/26 10:11:28;;;;;;;0.60;0.60;;;;;;;;;;4885998;29;20903;-80
2022/12/26 10:13:58;;;;;;;0.60;0.60;;;;;;;;;;4885873;29;20455;-79
2022/12/26 10:16:39;;;;;;;0.60;0.60;;;;;;;;;;4888663;29;20552;-80
2022/12/26 10:19:10;;;;;;;0.70;0.70;;;;;;;;;;4873311;29;20476;-81
2022/12/26 10:21:41;;;;;;;0.80;0.80;;;;;;;;;;4881715;29;20837;-80
2022/12/26 10:24:14;;;;;;;0.73;0.73;;;;;;;;;;4884105;29;20942;-81
2022/12/26 10:26:44;;;;;;;0.70;0.70;;;;;;;;;;4901120;29;20468;-83
2022/12/26 10:29:17;;;;;;;0.70;0.70;;;;;;;;;;4913679;29;20499;-82
2022/12/26 10:31:50;;;;;;;0.60;0.60;;;;;;;;;;4914741;29;20538;-80
2022/12/26 10:34:18;;;;;;;0.70;0.70;;;;;;;;;;4893206;29;20487;-80
2022/12/26 10:36:47;;;;;;;0.60;0.60;;;;;;;;;;4902204;29;20911;-80
2022/12/26 10:39:15;;;;;;;0.80;0.80;;;;;;;;;;4893119;29;20443;-79
2022/12/26 10:41:45;;;;;;;0.60;0.60;;;;;;;;;;4890671;29;20440;-79
2022/12/26 10:44:13;;;;;;;0.60;0.60;;;;;;;;;;4889615;29;20456;-81
2022/12/26 10:46:45;;;;;;;0.60;0.60;;;;;;;;;;4907992;29;20964;-80
2022/12/26 10:49:17;;;;;;;0.70;0.70;;;;;;;;;;4890046;29;20986;-80
2022/12/26 10:51:44;;;;;;;0.70;0.70;;;;;;;;;;4901869;29;20465;-80
2022/12/26 10:54:13;;;;;;;0.60;0.60;;;;;;;;;;4899857;29;20942;-80
2022/12/26 10:56:40;;;;;;;0.60;0.60;;;;;;;;;;4900518;29;20536;-80
2022/12/26 10:59:10;;;;;;;0.70;0.70;;;;;;;;;;4898779;29;21254;-79
2022/12/26 11:01:46;;;;;;;0.60;0.60;;;;;;;;;;4895187;29;20542;-78
2022/12/26 11:04:21;;;;;;;0.60;0.60;;;;;;;;;;4902332;29;20475;-80
2022/12/26 11:07:09;;;;;;;0.60;0.60;;;;;;;;;;4891033;29;20464;-76
2022/12/26 11:09:38;;;;;;;0.70;0.70;;;;;;;;;;4893395;29;20938;-78
2022/12/26 11:12:15;;;;;;;0.60;0.60;;;;;;;;;;4898949;29;20542;-80
2022/12/26 11:14:43;;;;;;;0.60;0.60;;;;;;;;;;4912731;29;20475;-80
2022/12/26 11:17:12;;;;;;;0.60;0.60;;;;;;;;;;4914205;29;20441;-80
2022/12/26 11:19:41;;;;;;;0.60;0.60;;;;;;;;;;4899578;29;20491;-80
2022/12/26 11:22:23;;;;;;;0.70;0.70;;;;;;;;;;4903471;29;20954;-81
2022/12/26 11:25:10;;;;;;;0.70;0.70;;;;;;;;;;4893612;29;20459;-79
2022/12/26 11:27:39;;;;;;;0.83;0.83;;;;;;;;;;4918498;29;20452;-80
2022/12/26 11:30:18;;;;;;;0.73;0.73;;;;;;;;;;4890326;29;20466;-81
2022/12/26 11:32:48;;;;;;;0.70;0.67;;;;;;;;;;4887524;29;21062;-80
2022/12/26 11:35:19;;;;;;;0.70;0.70;;;;;;;;;;4898140;29;20437;-80
2022/12/26 11:37:50;;;;;;;0.70;0.70;;;;;;;;;;4887983;29;20991;-79
2022/12/26 11:40:18;;;;;;;0.63;0.60;;;;;;;;;;4888482;29;20430;-78
2022/12/26 11:42:47;;;;;;;0.70;0.60;;;;;;;;;;4898886;29;20444;-78
2022/12/26 11:45:19;;;;;;;0.67;0.60;;;;;;;;;;4901608;29;20539;-80
2022/12/26 11:47:46;;;;;;;0.70;0.70;;;;;;;;;;4896520;29;20546;-78
2022/12/26 11:50:19;;;;;;;0.70;0.70;;;;;;;;;;4895154;29;21142;-82
2022/12/26 11:52:51;;;;;;;0.67;0.63;;;;;;;;;;4895023;29;21018;-80
2022/12/26 11:55:29;;;;;;;0.70;0.60;;;;;;;;;;4897826;29;20460;-78
2022/12/26 11:57:57;;;;;;;0.60;0.60;;;;;;;;;;4890574;29;20444;-76
2022/12/26 12:00:26;;;;;;;0.70;0.60;;;;;;;;;;4895671;29;20535;-80
2022/12/26 12:02:52;;;;;;;0.70;0.60;;;;;;;;;;4897432;29;20587;-81
2022/12/26 12:05:28;;;;;;;0.70;0.70;;;;;;;;;;4882944;29;20483;-81
2022/12/26 12:08:06;;;;;;;0.70;0.70;;;;;;;;;;4888076;29;20528;-81
2022/12/26 12:10:49;;;;;;;0.70;0.60;;;;;;;;;;4892693;29;20560;-80
2022/12/26 12:13:24;;;;;;;0.70;0.70;;;;;;;;;;4891643;29;20447;-80
2022/12/26 12:15:55;;;;;;;0.70;0.70;;;;;;;;;;4903538;29;20966;-80
2022/12/26 12:18:31;;;;;;;0.70;0.67;;;;;;;;;;4896628;29;20487;-80
2022/12/26 12:21:04;;;;;;;0.70;0.70;;;;;;;;;;4896009;29;20870;-80
2022/12/26 12:23:47;;;;;;;0.70;0.70;;;;;;;;;;4891073;29;20834;-80
2022/12/26 12:26:16;;;;;;;0.73;0.73;;;;;;;;;;4897623;29;20474;-79
2022/12/26 12:28:52;;;;;;;0.70;0.70;;;;;;;;;;4902442;29;20478;-81
2022/12/26 12:31:23;;;;;;;0.70;0.70;;;;;;;;;;4909969;29;20490;-81
2022/12/26 12:33:55;;;;;;;0.70;0.70;;;;;;;;;;4888471;29;20540;-81
2022/12/26 12:36:27;;;;;;;0.70;0.70;;;;;;;;;;4893087;29;20503;-80
2022/12/26 12:39:00;;;;;;;0.70;0.70;;;;;;;;;;4902686;29;20439;-81
2022/12/26 12:41:37;;;;;;;0.70;0.63;;;;;;;;;;4892675;29;20447;-81
2022/12/26 12:44:09;;;;;;;0.70;0.70;;;;;;;;;;4905294;29;20544;-82
2022/12/26 12:46:42;;;;;;;0.70;0.70;;;;;;;;;;4890428;29;20882;-81
2022/12/26 12:49:22;;;;;;;0.70;0.70;;;;;;;;;;4890731;29;20492;-81
2022/12/26 12:51:55;;;;;;;0.90;0.90;;;;;;;;;;4894845;29;20481;-80
2022/12/26 12:54:44;;;;;;;0.67;0.67;;;;;;;;;;4897488;29;20457;-80
2022/12/26 12:57:18;;;;;;;0.70;0.70;;;;;;;;;;4896575;29;21015;-82
2022/12/26 12:59:52;;;;;;;0.70;0.70;;;;;;;;;;4899341;29;20441;-82
2022/12/26 13:02:22;;;;;;;0.70;0.70;;;;;;;;;;4922505;29;20461;-80
2022/12/26 13:04:54;;;;;;;0.70;0.70;;;;;;;;;;4912105;29;20504;-79
2022/12/26 13:07:24;;;;;;;0.70;0.70;;;;;;;;;;4899523;29;20450;-80
2022/12/26 13:09:56;;;;;;;0.70;0.63;;;;;;;;;;4896195;29;20472;-81
2022/12/26 13:12:25;;;;;;;0.70;0.70;;;;;;;;;;4888128;29;20505;-81
2022/12/26 13:14:55;;;;;;;0.70;0.70;;;;;;;;;;4891343;29;20440;-78
2022/12/26 13:17:26;;;;;;;0.70;0.60;;;;;;;;;;4891135;29;20473;-82
2022/12/26 13:19:57;;;;;;;0.70;0.70;;;;;;;;;;4888538;29;20945;-79
2022/12/26 13:24:22;;;;;;;0.70;0.67;;;;;;;;;;4890394;29;20440;-80
2022/12/26 13:25:19;;;;;;;0.70;0.70;;;;;;;;;;4887508;29;20469;-81
2022/12/26 13:27:47;;;;;;;0.70;0.70;;;;;;;;;;4896997;29;20504;-81
2022/12/26 13:30:15;;;;;;;0.70;0.70;;;;;;;;;;4883850;29;20472;-79
2022/12/26 13:32:42;;;;;;;0.70;0.70;;;;;;;;;;4895757;29;20463;-81
2022/12/26 13:35:27;;;;;;;0.70;0.70;;;;;;;;;;4894796;29;20463;-80
2022/12/26 13:37:56;;;;;;;0.70;0.70;;;;;;;;;;4891646;29;20490;-79
2022/12/26 13:40:26;;;;;;;0.70;0.70;;;;;;;;;;4894244;29;20446;-77
2022/12/26 13:45:57;;;;;;;0.70;0.70;;;;;;;;;;4894563;29;20542;-76
2022/12/26 13:48:43;;;;;;;0.70;0.70;;;;;;;;;;4878919;29;20464;-77
2022/12/26 13:51:25;;;;;;;0.70;0.70;;;;;;;;;;4890106;29;20823;-76
2022/12/26 13:53:57;;;;;;;0.70;0.70;;;;;;;;;;4892237;29;20448;-77
2022/12/26 13:56:39;;;;;;;0.60;0.60;;;;;;;;;;4888704;29;20449;-80
2022/12/26 13:59:16;;;;;;;0.60;0.60;;;;;;;;;;4878157;29;20459;-79
2022/12/26 14:01:47;;;;;;;0.70;0.60;;;;;;;;;;4892952;29;20505;-79
2022/12/26 14:04:28;;;;;;;0.70;0.70;;;;;;;;;;4885819;29;20467;-78
2022/12/26 14:07:03;;;;;;;0.70;0.70;;;;;;;;;;4909916;29;20564;-76
2022/12/26 14:09:36;;;;;;;0.60;0.60;;;;;;;;;;4887641;29;20921;-81
2022/12/26 14:12:10;;;;;;;0.70;0.70;;;;;;;;;;4905262;29;21207;-79
2022/12/26 14:14:47;;;;;;;0.70;0.70;;;;;;;;;;4899382;29;20476;-79
2022/12/26 14:17:25;;;;;;;0.70;0.70;;;;;;;;;;4896321;29;20468;-79
2022/12/26 14:19:58;;;;;;;0.73;0.73;;;;;;;;;;4889780;29;20439;-79
2022/12/26 14:22:29;;;;;;;0.70;0.70;;;;;;;;;;4881865;29;20444;-79
2022/12/26 14:25:02;;;;;;;0.60;0.60;;;;;;;;;;4890554;29;20509;-78
2022/12/26 14:27:33;;;;;;;0.60;0.60;;;;;;;;;;4899707;29;20455;-79
2022/12/26 14:30:16;;;;;;;0.67;0.67;;;;;;;;;;4890374;29;20474;-79
2022/12/26 14:32:50;;;;;;;0.83;0.83;;;;;;;;;;4896922;29;20804;-81
2022/12/26 14:35:22;;;;;;;0.60;0.60;;;;;;;;;;4890087;29;20771;-79
2022/12/26 14:37:55;;;;;;;0.60;0.60;;;;;;;;;;4893498;29;20461;-79
2022/12/26 14:40:27;;;;;;;0.70;0.70;;;;;;;;;;4910452;29;20444;-78
2022/12/26 14:43:10;;;;;;;0.60;0.60;;;;;;;;;;4906936;29;20481;-79
2022/12/26 14:45:43;;;;;;;0.60;0.60;;;;;;;;;;4892420;29;20443;-81
2022/12/26 14:48:40;;;;;;;0.70;0.70;;;;;;;;;;4902736;29;20483;-80
2022/12/26 14:51:26;;;;;;;0.60;0.60;;;;;;;;;;4853509;29;20495;-80
2022/12/26 14:54:07;;;;;;;0.70;0.70;;;;;;;;;;4886880;29;20593;-81
2022/12/26 14:56:35;;;;;;;0.60;0.60;;;;;;;;;;4898798;29;20550;-79
2022/12/26 14:59:23;;;;;;;1.33;0.93;;;;;;;;;;4897785;29;20453;-78
2022/12/26 15:02:00;;;;;;;0.60;0.60;;;;;;;;;;4886986;29;20454;-80
2022/12/26 15:04:54;;;;;;;0.60;0.60;;;;;;;;;;4896328;29;20490;-81
2022/12/26 15:07:40;;;;;;;0.60;0.60;;;;;;;;;;4886622;29;20440;-80
2022/12/26 15:10:28;;;;;;;0.60;0.60;;;;;;;;;;4905018;29;20474;-79
2022/12/26 15:13:06;;;;;;;0.70;0.60;;;;;;;;;;4896852;29;20463;-79
2022/12/26 15:15:36;;;;;;;0.60;0.60;;;;;;;;;;4893688;29;20544;-81
2022/12/26 15:18:23;;;;;;;0.60;0.50;;;;;;;;;;4898872;29;21048;-82
2022/12/26 15:21:01;;;;;;;0.60;0.60;;;;;;;;;;4890501;29;20479;-81
2022/12/26 15:23:49;;;;;;;0.60;0.57;;;;;;;;;;4893089;29;20965;-84
2022/12/26 15:26:48;;;;;;;0.70;0.67;;;;;;;;;;4890798;29;20458;-80
2022/12/26 15:29:36;;;;;;;0.67;0.60;;;;;;;;;;4855993;29;20492;-82
2022/12/26 15:32:08;;;;;;;0.70;0.60;;;;;;;;;;4852435;29;20489;-81
2022/12/26 15:34:51;;;;;;;0.70;0.70;;;;;;;;;;4864581;29;20492;-80
2022/12/26 15:37:27;;;;;;;0.70;0.60;;;;;;;;;;4906307;29;20419;-80
2022/12/26 15:39:57;;;;;;;0.70;0.60;;;;;;;;;;4901059;29;20455;-80
2022/12/26 15:42:30;;;;;;;0.70;0.60;;;;;;;;;;4902695;29;20464;-80
2022/12/26 15:45:04;;;;;;;0.70;0.60;;;;;;;;;;4904063;29;20454;-83
2022/12/26 15:47:35;;;;;;;0.63;0.60;;;;;;;;;;4909578;29;21047;-80
2022/12/26 15:50:09;;;;;;;0.70;0.63;;;;;;;;;;4902333;29;20481;-81
2022/12/26 15:52:42;;;;;;;0.70;0.60;;;;;;;;;;4899233;29;20517;-83
2022/12/26 15:55:22;;;;;;;0.70;0.60;;;;;;;;;;4903044;29;20532;-80
2022/12/26 15:57:54;;;;;;;0.70;0.60;;;;;;;;;;4905570;29;20979;-79
2022/12/26 16:00:22;;;;;;;0.70;0.70;;;;;;;;;;4904828;29;20562;-82
2022/12/26 16:03:01;;;;;;;0.70;0.70;;;;;;;;;;4904670;29;20475;-82
2022/12/26 16:05:38;;;;;;;0.70;0.70;;;;;;;;;;4905306;29;20490;-79
2022/12/26 16:08:22;;;;;;;0.70;0.60;;;;;;;;;;4914269;29;20491;-79
2022/12/26 16:11:06;;;;;;;0.60;0.60;;;;;;;;;;4921286;29;20497;-80
2022/12/26 16:13:34;;;;;;;0.70;0.60;;;;;;;;;;4908696;29;20457;-79
2022/12/26 16:16:01;;;;;;;4.13;2.30;;;;;;;;;;4908716;29;20447;-80
2022/12/26 16:18:30;;;;;;;0.60;0.60;;;;;;;;;;4911497;29;20470;-82
2022/12/26 16:23:45;;;;;;;0.70;0.70;;;;;;;;;;4902395;29;20455;-81
2022/12/26 16:26:16;;;;;;;0.70;0.70;;;;;;;;;;4909346;29;20813;-82
2022/12/26 16:28:44;;;;;;;0.93;0.93;;;;;;;;;;4912857;29;21635;-80
2022/12/26 16:31:17;;;;;;;0.70;0.70;;;;;;;;;;4898599;29;20471;-82
2022/12/26 16:33:44;;;;;;;1.53;1.10;;;;;;;;;;4915540;29;20501;-79
2022/12/26 16:36:16;;;;;;;0.90;0.90;;;;;;;;;;4924706;29;20466;-82
2022/12/26 16:38:45;;;;;;;0.60;0.60;;;;;;;;;;4896660;29;20467;-79
2022/12/26 16:41:18;;;;;;;0.70;0.70;;;;;;;;;;4914722;29;20434;-78
2022/12/26 16:43:45;;;;;;;0.80;0.80;;;;;;;;;;4904959;29;20444;-80
2022/12/26 16:46:13;;;;;;;1.47;1.27;;;;;;;;;;4906514;29;20531;-81
2022/12/26 16:48:40;;;;;;;1.10;1.10;;;;;;;;;;4912954;29;20538;-82
2022/12/26 16:51:23;;;;;;;0.70;0.60;;;;;;;;;;4898602;29;20486;-81
2022/12/26 16:53:53;;;;;;;0.70;0.60;;;;;;;;;;4891325;29;20459;-82
2022/12/26 16:56:25;;;;;;;0.70;0.70;;;;;;;;;;4893630;29;20965;-84
2022/12/26 16:58:54;;;;;;;0.70;0.70;;;;;;;;;;4900522;29;20459;-80
2022/12/26 17:01:28;;;;;;;0.67;0.60;;;;;;;;;;4906710;29;20466;-81
2022/12/26 17:03:57;;;;;;;0.70;0.60;;;;;;;;;;4898651;29;20494;-79
2022/12/26 17:06:26;;;;;;;0.70;0.70;;;;;;;;;;4901954;29;20806;-79
2022/12/26 17:08:56;;;;;;;0.70;0.70;;;;;;;;;;4900037;29;20443;-79
2022/12/26 17:11:26;;;;;;;1.70;1.53;;;;;;;;;;4919615;29;20484;-81
2022/12/26 17:13:53;;;;;;;1.63;1.53;;;;;;;;;;4901511;29;20573;-83
2022/12/26 17:16:21;;;;;;;1.40;1.30;;;;;;;;;;4906483;29;20467;-81
2022/12/26 17:18:49;;;;;;;0.70;0.70;;;;;;;;;;4907111;29;20530;-82
2022/12/26 17:21:28;;;;;;;0.70;0.60;;;;;;;;;;4880960;29;20450;-81
2022/12/26 17:24:01;;;;;;;0.70;0.70;;;;;;;;;;4906823;29;20450;-83